1867 NOT_NAMED (1867042S15071)


IBTrACS version v04r00. Visit IBTrACS website for data access.
Please direct all questions to the IBTrACS Q and A forum

Storm track - Intensity - Wind Radii - Intensity Data - Source Data - All data

Summary Information

Storm ID 1867042S15071
Start Feb 11 06Z
End Feb 19 06Z
ATCF IDs
Track status Best track data.

Storm track plot

Map of storm track

Intensity plots

No Intensity information for this storm


Radial wind information

No radial wind information for this storm


Position and Intensity Table

BASIN ISO_TIME_________ NATURE LAT LON
degrees north degrees east
SI 1867-02-11 06:00:00 NR -14.60 71.30
SI 09:00:00 NR -14.68 71.17
SI 12:00:00 NR -14.76 71.04
SI 15:00:00 NR -14.84 70.91
SI 18:00:00 NR -14.93 70.78
SI 21:00:00 NR -15.01 70.64
SI 1867-02-12 00:00:00 NR -15.10 70.50
SI 03:00:00 NR -15.20 70.35
SI 06:00:00 NR -15.30 70.20
SI 09:00:00 NR -15.41 70.04
SI 12:00:00 NR -15.52 69.88
SI 15:00:00 NR -15.64 69.70
SI 18:00:00 NR -15.76 69.53
SI 21:00:00 NR -15.89 69.35
SI 1867-02-13 00:00:00 NR -16.02 69.17
SI 03:00:00 NR -16.16 68.99
SI 06:00:00 NR -16.30 68.80
SI 09:00:00 NR -16.44 68.61
SI 12:00:00 NR -16.59 68.42
SI 15:00:00 NR -16.73 68.23
SI 18:00:00 NR -16.88 68.04
SI 21:00:00 NR -17.04 67.85
SI 1867-02-14 00:00:00 NR -17.19 67.66
SI 03:00:00 NR -17.35 67.48
SI 06:00:00 NR -17.50 67.30
SI 09:00:00 NR -17.64 67.13
SI 12:00:00 NR -17.78 66.97
SI 15:00:00 NR -17.91 66.81
SI 18:00:00 NR -18.05 66.66
SI 21:00:00 NR -18.20 66.50
SI 1867-02-15 00:00:00 NR -18.36 66.34
SI 03:00:00 NR -18.52 66.17
SI 06:00:00 NR -18.70 66.00
SI 09:00:00 NR -18.91 65.80
SI 12:00:00 NR -19.13 65.60
SI 15:00:00 NR -19.36 65.39
SI 18:00:00 NR -19.59 65.18
SI 21:00:00 NR -19.83 64.97
SI 1867-02-16 00:00:00 NR -20.06 64.77
SI 03:00:00 NR -20.29 64.58
SI 06:00:00 NR -20.50 64.40
SI 09:00:00 NR -20.68 64.25
SI 12:00:00 NR -20.84 64.11
SI 15:00:00 NR -21.00 63.98
SI 18:00:00 NR -21.16 63.85
SI 21:00:00 NR -21.31 63.74
SI 1867-02-17 00:00:00 NR -21.47 63.62
SI 03:00:00 NR -21.63 63.51
SI 06:00:00 NR -21.80 63.40
SI 09:00:00 NR -22.00 63.27
SI 12:00:00 NR -22.21 63.13
SI 15:00:00 NR -22.42 63.00
SI 18:00:00 NR -22.64 62.87
SI 21:00:00 NR -22.86 62.74
SI 1867-02-18 00:00:00 NR -23.08 62.62
SI 03:00:00 NR -23.29 62.51
SI 06:00:00 NR -23.50 62.40
SI 09:00:00 NR -23.70 62.30
SI 12:00:00 NR -23.88 62.21
SI 15:00:00 NR -24.07 62.13
SI 18:00:00 NR -24.24 62.06
SI 21:00:00 NR -24.41 61.99
SI 1867-02-19 00:00:00 NR -24.57 61.93
SI 03:00:00 NR -24.74 61.86
SI 06:00:00 NR -24.90 61.80

Source Information

Agency Information
USA
TOKYO
CMA
HKO
NEWDELHI
REUNION WMO-Best-Tracks.txt:Line=705:xxxx867104
BOM
NADI
WELLINGTON
DS824
TD9636
TD9635
NEUMANN
MLC

All available IBTrACS Data

SEASON BASIN SUBBASIN ISO_TIME_________ NATURE LAT LON WMO AGENCY DIST2LAND LANDFALL IFLAG USA SSHS REUNION LAT REUNION LON REUNION TYPE REUNION TNUM STORM SPEED STORM DIR
Year degrees north degrees east km km 1 degrees north degrees east 1 kts degrees
1867 SI MM 1867-02-11 06:00:00 NR -14.60 71.30 reunion 1566 1552 _____O________ -1 -14.60 71.30 99 9.90 3 238
1867 SI MM 09:00:00 NR -14.68 71.17 1552 1528 _____P________ -1 -14.68 71.17 99 3 237
1867 SI MM 12:00:00 NR -14.76 71.04 1528 1518 _____P________ -1 -14.76 71.04 99 3 237
1867 SI MM 15:00:00 NR -14.84 70.91 1518 1503 _____P________ -1 -14.84 70.91 99 3 237
1867 SI MM 18:00:00 NR -14.93 70.78 1503 1479 _____P________ -1 -14.93 70.78 99 3 237
1867 SI MM 21:00:00 NR -15.01 70.64 1479 1465 _____P________ -1 -15.01 70.64 99 3 236
1867 SI MM 1867-02-12 00:00:00 NR -15.10 70.50 1465 1450 _____P________ -1 -15.10 70.50 99 3 236
1867 SI MM 03:00:00 NR -15.20 70.35 1450 1426 _____P________ -1 -15.20 70.35 99 4 236
1867 SI MM 06:00:00 NR -15.30 70.20 reunion 1426 1402 _____O________ -1 -15.30 70.20 99 9.90 4 235
1867 SI MM 09:00:00 NR -15.41 70.04 1402 1387 _____P________ -1 -15.41 70.04 99 4 235
1867 SI MM 12:00:00 NR -15.52 69.88 1387 1363 _____P________ -1 -15.52 69.88 99 4 234
1867 SI MM 15:00:00 NR -15.64 69.70 1363 1335 _____P________ -1 -15.64 69.70 99 4 234
1867 SI MM 18:00:00 NR -15.76 69.53 1335 1320 _____P________ -1 -15.76 69.53 99 4 234
1867 SI MM 21:00:00 NR -15.89 69.35 1320 1296 _____P________ -1 -15.89 69.35 99 4 233
1867 SI MM 1867-02-13 00:00:00 NR -16.02 69.17 1296 1268 _____P________ -1 -16.02 69.17 99 4 233
1867 SI MM 03:00:00 NR -16.16 68.99 1268 1244 _____P________ -1 -16.16 68.99 99 5 232
1867 SI MM 06:00:00 NR -16.30 68.80 reunion 1244 1220 _____O________ -1 -16.30 68.80 99 9.90 5 232
1867 SI MM 09:00:00 NR -16.44 68.61 1220 1191 _____P________ -1 -16.44 68.61 99 5 232
1867 SI MM 12:00:00 NR -16.59 68.42 1191 1168 _____P________ -1 -16.59 68.42 99 5 231
1867 SI MM 15:00:00 NR -16.73 68.23 1168 1149 _____P________ -1 -16.73 68.23 99 5 231
1867 SI MM 18:00:00 NR -16.88 68.04 1140 1126 _____P________ -1 -16.88 68.04 99 5 230
1867 SI MM 21:00:00 NR -17.04 67.85 1126 1098 _____P________ -1 -17.04 67.85 99 5 230
1867 SI MM 1867-02-14 00:00:00 NR -17.19 67.66 1098 1074 _____P________ -1 -17.19 67.66 99 5 229
1867 SI MM 03:00:00 NR -17.35 67.48 1074 1047 _____P________ -1 -17.35 67.48 99 5 228
1867 SI MM 06:00:00 NR -17.50 67.30 reunion 1047 1023 _____O________ -1 -17.50 67.30 99 9.90 4 229
1867 SI MM 09:00:00 NR -17.64 67.13 1023 1006 _____P________ -1 -17.64 67.13 99 4 228
1867 SI MM 12:00:00 NR -17.78 66.97 1006 982 _____P________ -1 -17.78 66.97 99 4 228
1867 SI MM 15:00:00 NR -17.91 66.81 982 969 _____P________ -1 -17.91 66.81 99 4 227
1867 SI MM 18:00:00 NR -18.05 66.66 966 942 _____P________ -1 -18.05 66.66 99 4 226
1867 SI MM 21:00:00 NR -18.20 66.50 942 919 _____P________ -1 -18.20 66.50 99 4 225
1867 SI MM 1867-02-15 00:00:00 NR -18.36 66.34 916 903 _____P________ -1 -18.36 66.34 99 4 224
1867 SI MM 03:00:00 NR -18.52 66.17 903 877 _____P________ -1 -18.52 66.17 99 5 223
1867 SI MM 06:00:00 NR -18.70 66.00 reunion 877 852 _____O________ -1 -18.70 66.00 99 9.90 5 222
1867 SI MM 09:00:00 NR -18.91 65.80 852 827 _____P________ -1 -18.91 65.80 99 6 222
1867 SI MM 12:00:00 NR -19.13 65.60 827 802 _____P________ -1 -19.13 65.60 99 6 221
1867 SI MM 15:00:00 NR -19.36 65.39 801 777 _____P________ -1 -19.36 65.39 99 6 220
1867 SI MM 18:00:00 NR -19.59 65.18 777 754 _____P________ -1 -19.59 65.18 99 6 220
1867 SI MM 21:00:00 NR -19.83 64.97 754 731 _____P________ -1 -19.83 64.97 99 6 219
1867 SI MM 1867-02-16 00:00:00 NR -20.06 64.77 730 709 _____P________ -1 -20.06 64.77 99 6 219
1867 SI MM 03:00:00 NR -20.29 64.58 709 688 _____P________ -1 -20.29 64.58 99 6 218
1867 SI MM 06:00:00 NR -20.50 64.40 reunion 688 677 _____O________ -1 -20.50 64.40 99 9.90 5 219
1867 SI MM 09:00:00 NR -20.68 64.25 667 658 _____P________ -1 -20.68 64.25 99 4 219
1867 SI MM 12:00:00 NR -20.84 64.11 658 648 _____P________ -1 -20.84 64.11 99 4 218
1867 SI MM 15:00:00 NR -21.00 63.98 649 639 _____P________ -1 -21.00 63.98 99 4 217
1867 SI MM 18:00:00 NR -21.16 63.85 642 623 _____P________ -1 -21.16 63.85 99 4 216
1867 SI MM 21:00:00 NR -21.31 63.74 623 614 _____P________ -1 -21.31 63.74 99 4 215
1867 SI MM 1867-02-17 00:00:00 NR -21.47 63.62 617 609 _____P________ -1 -21.47 63.62 99 4 214
1867 SI MM 03:00:00 NR -21.63 63.51 609 601 _____P________ -1 -21.63 63.51 99 4 212
1867 SI MM 06:00:00 NR -21.80 63.40 reunion 604 597 _____O________ -1 -21.80 63.40 99 9.90 4 211
1867 SI MM 09:00:00 NR -22.00 63.27 601 588 _____P________ -1 -22.00 63.27 99 5 211
1867 SI MM 12:00:00 NR -22.21 63.13 588 587 _____P________ -1 -22.21 63.13 99 5 210
1867 SI MM 15:00:00 NR -22.42 63.00 587 582 _____P________ -1 -22.42 63.00 99 5 209
1867 SI MM 18:00:00 NR -22.64 62.87 586 581 _____P________ -1 -22.64 62.87 99 5 208
1867 SI MM 21:00:00 NR -22.86 62.74 581 577 _____P________ -1 -22.86 62.74 99 5 208
1867 SI MM 1867-02-18 00:00:00 NR -23.08 62.62 583 579 _____P________ -1 -23.08 62.62 99 5 207
1867 SI MM 03:00:00 NR -23.29 62.51 585 582 _____P________ -1 -23.29 62.51 99 5 205
1867 SI MM 06:00:00 NR -23.50 62.40 reunion 589 587 _____O________ -1 -23.50 62.40 99 9.90 4 205
1867 SI MM 09:00:00 NR -23.70 62.30 593 592 _____P________ -1 -23.70 62.30 99 4 204
1867 SI MM 12:00:00 NR -23.88 62.21 599 598 _____P________ -1 -23.88 62.21 99 4 203
1867 SI MM 15:00:00 NR -24.07 62.13 605 605 _____P________ -1 -24.07 62.13 99 4 202
1867 SI MM 18:00:00 NR -24.24 62.06 612 612 _____P________ -1 -24.24 62.06 99 4 200
1867 SI MM 21:00:00 NR -24.41 61.99 620 620 _____P________ -1 -24.41 61.99 99 4 201
1867 SI MM 1867-02-19 00:00:00 NR -24.57 61.93 629 629 _____P________ -1 -24.57 61.93 99 4 200
1867 SI MM 03:00:00 NR -24.74 61.86 637 637 _____P________ -1 -24.74 61.86 99 3 198
1867 SI MM 06:00:00 NR -24.90 61.80 reunion 646 _____O________ -1 -24.90 61.80 99 9.90 3 200